createdAt,value
2023-07-24T00:01:19.487Z,8.65
2023-07-24T00:03:47.186Z,6.80
2023-07-24T00:06:14.165Z,5.60
2023-07-24T00:08:41.197Z,5.93
2023-07-24T00:11:10.979Z,5.35
2023-07-24T00:13:38.031Z,8.10
2023-07-24T00:16:09.497Z,12.98
2023-07-24T00:18:36.553Z,19.80
2023-07-24T00:21:03.569Z,25.70
2023-07-24T00:23:30.626Z,5.10
2023-07-24T00:25:57.647Z,6.57
2023-07-24T00:28:25.316Z,12.02
2023-07-24T00:30:52.397Z,14.57
2023-07-24T00:33:19.485Z,7.93
2023-07-24T00:35:46.488Z,6.05
2023-07-24T00:38:13.647Z,8.60
2023-07-24T00:40:40.685Z,6.63
2023-07-24T00:43:07.702Z,7.07
2023-07-24T00:45:34.817Z,7.25
2023-07-24T00:48:02.478Z,8.90
2023-07-24T00:50:31.277Z,8.43
2023-07-24T00:52:59.136Z,6.32
2023-07-24T00:55:26.839Z,5.47
2023-07-24T00:57:54.031Z,6.85
2023-07-24T01:00:21.285Z,7.47
2023-07-24T01:02:49.572Z,22.25
2023-07-24T01:05:17.807Z,19.08
2023-07-24T01:07:44.811Z,16.67
2023-07-24T01:10:12.233Z,7.03
2023-07-24T01:13:07.857Z,6.15
2023-07-24T01:15:39.710Z,6.35
2023-07-24T01:18:12.058Z,6.03
2023-07-24T01:20:45.027Z,5.55
2023-07-24T01:23:22.093Z,6.32
2023-07-24T01:25:59.822Z,6.30
2023-07-24T01:28:27.666Z,6.63
2023-07-24T01:30:56.065Z,4.70
2023-07-24T01:33:24.402Z,6.57
2023-07-24T01:35:56.168Z,19.15
2023-07-24T01:38:24.512Z,14.23
2023-07-24T01:40:53.084Z,9.15
2023-07-24T01:43:20.061Z,6.75
2023-07-24T01:45:47.203Z,10.80
2023-07-24T01:48:14.495Z,11.68
2023-07-24T01:50:41.703Z,7.85
2023-07-24T01:53:08.891Z,8.43
2023-07-24T01:55:35.898Z,6.95
2023-07-24T01:58:02.968Z,6.72
2023-07-24T02:00:30.229Z,10.63
2023-07-24T02:02:57.310Z,13.38
2023-07-24T02:05:24.378Z,10.05
2023-07-24T02:07:51.435Z,15.73
2023-07-24T02:10:18.507Z,11.50
2023-07-24T02:12:46.475Z,8.88
2023-07-24T02:15:13.533Z,9.63
2023-07-24T02:17:40.678Z,10.35
2023-07-24T02:20:08.375Z,16.42
2023-07-24T02:22:35.414Z,11.23
2023-07-24T02:25:02.486Z,23.42
2023-07-24T02:27:35.304Z,65.28
2023-07-24T02:30:03.263Z,35.35
2023-07-24T02:32:30.267Z,33.17
2023-07-24T02:35:05.093Z,20.63
2023-07-24T02:37:32.127Z,37.67
2023-07-24T02:39:59.142Z,43.55
2023-07-24T02:42:26.137Z,37.17
2023-07-24T02:44:54.317Z,37.90
2023-07-24T02:47:21.295Z,33.75
2023-07-24T02:49:48.505Z,51.75
2023-07-24T02:52:15.506Z,30.48
2023-07-24T02:54:42.545Z,84.38
2023-07-24T02:57:09.546Z,51.78
2023-07-24T02:59:36.779Z,57.92
2023-07-24T03:02:03.948Z,27.73
2023-07-24T03:04:32.269Z,29.30
2023-07-24T03:06:59.235Z,26.02
2023-07-24T03:09:26.177Z,22.25
2023-07-24T03:11:53.154Z,25.75
2023-07-24T03:14:20.162Z,16.75
2023-07-24T03:16:47.110Z,21.20
2023-07-24T03:19:14.082Z,27.02
2023-07-24T03:21:41.056Z,20.05
2023-07-24T03:24:08.049Z,22.00
2023-07-24T03:26:35.166Z,23.17
2023-07-24T03:29:02.238Z,27.63
2023-07-24T03:31:29.259Z,27.73
2023-07-24T03:33:56.318Z,23.17
2023-07-24T03:36:24.752Z,21.27
2023-07-24T03:38:51.903Z,19.55
2023-07-24T03:41:18.900Z,17.67
2023-07-24T03:43:45.854Z,17.05
2023-07-24T03:46:12.897Z,18.38
2023-07-24T03:48:39.949Z,17.55
2023-07-24T03:51:08.469Z,23.00
2023-07-24T03:53:35.527Z,19.35
2023-07-24T03:56:02.555Z,21.08
2023-07-24T03:58:29.609Z,15.65
2023-07-24T04:00:56.677Z,11.13
2023-07-24T04:03:23.741Z,12.18
2023-07-24T04:05:50.704Z,16.30
2023-07-24T04:08:17.685Z,13.38
2023-07-24T04:10:44.660Z,15.13
2023-07-24T04:13:11.627Z,11.13
2023-07-24T04:15:39.428Z,12.02
2023-07-24T04:18:06.835Z,13.70
2023-07-24T04:20:33.897Z,14.95
2023-07-24T04:23:00.861Z,14.48
2023-07-24T04:25:28.122Z,13.68
2023-07-24T04:27:55.114Z,13.13
2023-07-24T04:30:22.454Z,11.27
2023-07-24T04:32:49.473Z,13.65
2023-07-24T04:35:16.540Z,12.52
2023-07-24T04:37:43.550Z,11.45
2023-07-24T04:40:11.605Z,11.27
2023-07-24T04:42:38.655Z,11.52
2023-07-24T04:45:06.049Z,12.25
2023-07-24T04:47:33.024Z,14.43
2023-07-24T04:50:00.014Z,17.25
2023-07-24T04:52:27.001Z,10.55
2023-07-24T04:54:53.988Z,12.63
2023-07-24T04:57:21.005Z,8.98
2023-07-24T04:59:49.128Z,12.82
2023-07-24T05:02:17.563Z,9.55
2023-07-24T05:04:44.587Z,10.05
2023-07-24T05:07:11.676Z,10.32
2023-07-24T05:09:38.647Z,9.00
2023-07-24T05:12:06.216Z,8.65
2023-07-24T05:14:33.215Z,9.35
2023-07-24T05:17:00.182Z,9.40
2023-07-24T05:19:27.196Z,8.15
2023-07-24T05:21:54.182Z,11.07
2023-07-24T05:24:21.283Z,9.23
2023-07-24T05:26:48.344Z,9.15
2023-07-24T05:29:15.292Z,8.13
2023-07-24T05:31:42.390Z,6.45
2023-07-24T05:34:09.452Z,6.05
2023-07-24T05:36:36.500Z,7.32
2023-07-24T05:39:03.580Z,6.32
2023-07-24T05:41:30.645Z,4.38
2023-07-24T05:43:57.642Z,4.90
2023-07-24T05:46:24.669Z,5.30
2023-07-24T05:48:51.673Z,5.78
2023-07-24T05:51:18.720Z,5.70
2023-07-24T05:53:45.733Z,8.75
2023-07-24T05:56:12.708Z,5.55
2023-07-24T05:58:39.715Z,6.18
2023-07-24T06:01:09.404Z,5.35
2023-07-24T06:03:36.451Z,10.27
2023-07-24T06:06:03.762Z,6.75
2023-07-24T06:08:30.817Z,6.15
2023-07-24T06:10:57.893Z,6.85
2023-07-24T06:13:24.895Z,5.45
2023-07-24T06:15:53.423Z,6.28
2023-07-24T06:18:20.482Z,5.40
2023-07-24T06:20:48.281Z,8.57
2023-07-24T06:23:15.223Z,6.88
2023-07-24T06:25:42.232Z,5.03
2023-07-24T06:28:09.201Z,7.30
2023-07-24T06:30:36.215Z,11.00
2023-07-24T06:33:03.400Z,8.32
2023-07-24T06:35:30.901Z,9.13
2023-07-24T06:37:58.024Z,10.35
2023-07-24T06:40:25.019Z,7.20
2023-07-24T06:42:52.119Z,7.00
2023-07-24T06:45:19.188Z,9.50
2023-07-24T06:47:46.206Z,8.90
2023-07-24T06:50:13.211Z,9.25
2023-07-24T06:52:40.192Z,7.50
2023-07-24T06:55:10.305Z,12.60
2023-07-24T06:57:37.257Z,10.10
2023-07-24T07:00:06.494Z,9.93
2023-07-24T07:02:34.351Z,12.80
2023-07-24T07:05:01.459Z,10.65
2023-07-24T07:07:28.457Z,9.63
2023-07-24T07:09:55.396Z,9.23
2023-07-24T07:12:22.565Z,10.10
2023-07-24T07:14:49.669Z,8.80
2023-07-24T07:17:16.689Z,10.32
2023-07-24T07:19:43.659Z,9.18
2023-07-24T07:22:10.659Z,10.35
2023-07-24T07:24:37.788Z,8.02
2023-07-24T07:27:09.264Z,10.45
2023-07-24T07:29:36.410Z,11.50
2023-07-24T07:32:03.489Z,9.27
2023-07-24T07:34:30.455Z,12.48
2023-07-24T07:36:57.464Z,10.45
2023-07-24T07:39:24.437Z,9.18
2023-07-24T07:41:56.060Z,12.13
2023-07-24T07:44:28.298Z,8.30
2023-07-24T07:46:55.339Z,8.70
2023-07-24T07:49:22.309Z,9.75
2023-07-24T07:51:49.520Z,7.20
2023-07-24T07:54:17.161Z,4.38
2023-07-24T07:56:44.283Z,5.20
2023-07-24T07:59:11.267Z,7.32
2023-07-24T08:01:40.550Z,6.70
2023-07-24T08:04:07.603Z,6.38
2023-07-24T08:06:34.637Z,3.88
2023-07-24T08:09:01.640Z,4.90
2023-07-24T08:11:28.608Z,6.85
2023-07-24T08:13:55.738Z,7.40
2023-07-24T08:16:22.739Z,6.32
2023-07-24T08:18:49.948Z,5.53
2023-07-24T08:21:16.982Z,6.53
2023-07-24T08:23:44.121Z,3.85
2023-07-24T08:26:11.163Z,5.25
2023-07-24T08:28:38.204Z,8.48
2023-07-24T08:31:07.561Z,4.70
2023-07-24T08:33:34.984Z,4.50
2023-07-24T08:36:04.222Z,6.35
2023-07-24T08:38:31.544Z,5.05
2023-07-24T08:41:06.852Z,3.75
2023-07-24T08:43:35.956Z,3.53
2023-07-24T08:46:04.357Z,5.65
2023-07-24T08:48:39.124Z,3.83
2023-07-24T08:51:08.322Z,4.00
2023-07-24T08:53:40.163Z,5.22
2023-07-24T08:56:08.985Z,6.05
2023-07-24T08:58:36.767Z,3.75
2023-07-24T09:01:05.470Z,3.80
2023-07-24T09:03:34.358Z,2.97
2023-07-24T09:06:05.372Z,3.97
2023-07-24T09:08:41.040Z,4.97
2023-07-24T09:11:11.348Z,7.13
2023-07-24T09:13:43.242Z,6.50
2023-07-24T09:16:11.005Z,6.68
2023-07-24T09:18:42.328Z,7.40
2023-07-24T09:21:10.043Z,7.68
2023-07-24T09:23:37.022Z,5.25
2023-07-24T09:26:08.623Z,6.30
2023-07-24T09:28:36.495Z,8.10
2023-07-24T09:31:03.998Z,5.32
2023-07-24T09:33:37.308Z,6.13
2023-07-24T09:36:06.589Z,7.72
2023-07-24T09:38:33.639Z,7.75
2023-07-24T09:41:03.669Z,4.97
2023-07-24T09:43:39.861Z,6.20
2023-07-24T09:46:08.620Z,5.88
2023-07-24T09:48:41.630Z,5.25
2023-07-24T09:51:14.756Z,6.88
2023-07-24T09:53:53.762Z,4.13
2023-07-24T09:56:31.591Z,7.78
2023-07-24T09:59:07.466Z,6.57
2023-07-24T10:01:35.205Z,8.13
2023-07-24T10:04:04.744Z,4.85
2023-07-24T10:06:33.238Z,4.55
2023-07-24T10:09:01.911Z,6.00
2023-07-24T10:11:29.681Z,7.63
2023-07-24T10:13:57.349Z,5.60
2023-07-24T10:16:24.449Z,7.05
2023-07-24T10:18:51.527Z,8.95
2023-07-24T10:21:18.608Z,6.63
2023-07-24T10:23:50.135Z,6.25
2023-07-24T10:26:18.003Z,5.82
2023-07-24T10:28:49.796Z,6.00
2023-07-24T10:31:35.772Z,6.50
2023-07-24T10:34:07.343Z,7.40
2023-07-24T10:36:39.479Z,6.97
2023-07-24T10:39:16.338Z,6.10
2023-07-24T10:41:45.495Z,5.22
2023-07-24T10:44:12.503Z,9.73
2023-07-24T10:46:46.401Z,5.25
2023-07-24T10:49:13.420Z,6.45
2023-07-24T10:51:40.615Z,4.93
2023-07-24T10:54:07.902Z,6.78
2023-07-24T10:56:37.442Z,5.90
2023-07-24T10:59:07.554Z,7.25
2023-07-24T11:01:35.774Z,6.72
2023-07-24T11:04:03.784Z,10.55
2023-07-24T11:06:30.854Z,8.13
2023-07-24T11:09:00.370Z,9.07
2023-07-24T11:11:35.787Z,6.50
2023-07-24T11:14:04.138Z,7.03
2023-07-24T11:16:32.843Z,6.50
2023-07-24T11:19:00.331Z,7.90
2023-07-24T11:21:27.540Z,7.10
2023-07-24T11:23:56.736Z,8.27
2023-07-24T11:26:25.482Z,6.05
2023-07-24T11:28:53.749Z,5.03
2023-07-24T11:31:21.581Z,7.63
2023-07-24T11:33:53.771Z,9.10
2023-07-24T11:36:21.309Z,6.60
2023-07-24T11:38:48.934Z,4.80
2023-07-24T11:41:18.888Z,5.22
2023-07-24T11:43:50.717Z,7.03
2023-07-24T11:46:28.423Z,7.68
2023-07-24T11:48:58.789Z,7.07
2023-07-24T11:54:04.757Z,6.18
2023-07-24T11:56:31.722Z,5.60
2023-07-24T11:58:58.706Z,7.72
2023-07-24T12:01:25.702Z,5.47
2023-07-24T12:03:52.824Z,6.50
2023-07-24T12:06:21.257Z,4.93
2023-07-24T12:08:48.326Z,6.10
2023-07-24T12:11:22.690Z,6.07
2023-07-24T12:13:51.471Z,4.15
2023-07-24T12:16:19.556Z,5.47
2023-07-24T12:18:46.636Z,4.20
2023-07-24T12:21:13.575Z,4.97
2023-07-24T12:23:40.606Z,4.25
2023-07-24T12:26:08.518Z,3.72
2023-07-24T12:28:35.492Z,2.97
2023-07-24T12:31:03.628Z,4.13
2023-07-24T12:33:30.687Z,2.42
2023-07-24T12:35:57.690Z,3.45
2023-07-24T12:38:24.643Z,2.88
2023-07-24T12:40:51.720Z,4.30
2023-07-24T12:43:18.834Z,3.17
2023-07-24T12:45:45.934Z,4.18
2023-07-24T12:48:13.069Z,5.95
2023-07-24T12:50:40.143Z,5.30
2023-07-24T12:53:08.350Z,4.57
2023-07-24T12:55:38.175Z,2.80
2023-07-24T12:58:05.628Z,4.05
2023-07-24T13:00:33.064Z,3.15
2023-07-24T13:03:00.293Z,3.33
2023-07-24T13:05:27.440Z,3.15
2023-07-24T13:07:54.448Z,2.35
2023-07-24T13:10:24.602Z,2.65
2023-07-24T13:12:51.723Z,2.53
2023-07-24T13:15:21.930Z,1.52
2023-07-24T13:17:56.625Z,2.28
2023-07-24T13:20:26.729Z,5.85
2023-07-24T13:22:53.760Z,3.20
2023-07-24T13:25:21.701Z,2.42
2023-07-24T13:27:48.723Z,3.10
2023-07-24T13:30:15.833Z,3.53
2023-07-24T13:32:43.024Z,3.28
2023-07-24T13:35:10.140Z,4.15
2023-07-24T13:37:37.133Z,3.67
2023-07-24T13:40:04.340Z,4.50
2023-07-24T13:42:31.381Z,3.63
2023-07-24T13:44:58.373Z,2.25
2023-07-24T13:47:25.473Z,2.65
2023-07-24T13:49:52.692Z,3.50
2023-07-24T13:52:19.686Z,2.97
2023-07-24T13:54:49.756Z,4.82
2023-07-24T13:57:16.861Z,3.05
2023-07-24T13:59:43.908Z,3.83
2023-07-24T14:02:10.941Z,4.18
2023-07-24T14:04:37.985Z,1.63
2023-07-24T14:07:05.069Z,3.88
2023-07-24T14:09:33.962Z,4.07
2023-07-24T14:12:01.021Z,1.88
2023-07-24T14:14:28.215Z,3.90
2023-07-24T14:16:55.183Z,5.13
2023-07-24T14:19:22.177Z,3.22
2023-07-24T14:21:49.127Z,4.65
2023-07-24T14:24:16.145Z,3.63
2023-07-24T14:26:43.217Z,3.05
2023-07-24T14:29:10.252Z,2.75
2023-07-24T14:31:37.798Z,2.53
2023-07-24T14:34:05.298Z,3.85
2023-07-24T14:36:35.267Z,4.13
2023-07-24T14:39:02.338Z,2.63
2023-07-24T14:41:29.831Z,3.22
2023-07-24T14:43:57.095Z,2.78
2023-07-24T14:46:24.206Z,3.38
2023-07-24T14:48:51.328Z,3.50
2023-07-24T14:51:18.288Z,4.25
2023-07-24T14:53:45.340Z,2.50
2023-07-24T14:56:12.303Z,3.08
2023-07-24T14:58:39.320Z,3.50
2023-07-24T15:01:06.820Z,4.10
2023-07-24T15:03:33.909Z,3.20
2023-07-24T15:06:05.005Z,3.78
2023-07-24T15:08:32.472Z,4.55
2023-07-24T15:10:59.574Z,5.78
2023-07-24T15:13:26.671Z,4.72
2023-07-24T15:15:53.705Z,4.75
2023-07-24T15:18:20.735Z,6.35
2023-07-24T15:20:47.746Z,11.02
2023-07-24T15:23:14.798Z,4.80
2023-07-24T15:25:41.888Z,7.25
2023-07-24T15:28:08.959Z,4.47
2023-07-24T15:30:35.998Z,4.35
2023-07-24T15:33:03.065Z,5.45
2023-07-24T15:35:30.128Z,5.40
2023-07-24T15:37:57.150Z,4.57
2023-07-24T15:40:24.150Z,4.13
2023-07-24T15:42:51.141Z,5.22
2023-07-24T15:45:18.221Z,7.05
2023-07-24T15:47:45.512Z,6.53
2023-07-24T15:50:12.549Z,8.18
2023-07-24T15:52:39.554Z,5.30
2023-07-24T15:55:06.711Z,4.60
2023-07-24T15:57:33.713Z,5.30
2023-07-24T16:00:00.696Z,5.53
2023-07-24T16:02:27.898Z,7.70
2023-07-24T16:04:55.045Z,4.38
2023-07-24T16:07:22.057Z,7.63
2023-07-24T16:09:49.069Z,6.60
2023-07-24T16:12:16.035Z,7.63
2023-07-24T16:14:43.390Z,4.47
2023-07-24T16:17:10.504Z,5.35
2023-07-24T16:19:38.193Z,6.32
2023-07-24T16:22:05.611Z,4.65
2023-07-24T16:24:32.704Z,5.90
2023-07-24T16:27:01.772Z,6.10
2023-07-24T16:29:28.969Z,5.97
2023-07-24T16:32:00.421Z,6.72
2023-07-24T16:34:29.290Z,5.47
2023-07-24T16:36:56.970Z,5.43
2023-07-24T16:39:24.510Z,4.47
2023-07-24T16:41:53.013Z,4.50
2023-07-24T16:44:20.129Z,7.57
2023-07-24T16:46:47.209Z,7.65
2023-07-24T16:49:14.266Z,4.25
2023-07-24T16:51:41.260Z,8.73
2023-07-24T16:54:08.515Z,7.13
2023-07-24T16:56:35.544Z,5.82
2023-07-24T16:59:02.534Z,5.25
2023-07-24T17:01:30.808Z,4.40
2023-07-24T17:03:59.000Z,6.05
2023-07-24T17:06:26.342Z,6.50
2023-07-24T17:08:53.394Z,6.03
2023-07-24T17:11:20.414Z,6.65
2023-07-24T17:13:48.386Z,5.30
2023-07-24T17:16:15.475Z,6.22
2023-07-24T17:18:42.721Z,6.72
2023-07-24T17:21:09.733Z,6.72
2023-07-24T17:23:36.771Z,4.88
2023-07-24T17:26:03.888Z,5.80
2023-07-24T17:28:30.891Z,7.28
2023-07-24T17:30:57.878Z,6.35
2023-07-24T17:33:26.288Z,7.78
2023-07-24T17:35:53.551Z,5.93
2023-07-24T17:38:20.553Z,6.75
2023-07-24T17:40:47.547Z,4.95
2023-07-24T17:43:14.635Z,7.95
2023-07-24T17:45:41.591Z,5.28
2023-07-24T17:48:08.722Z,6.63
2023-07-24T17:50:36.427Z,6.40
2023-07-24T17:53:03.482Z,6.25
2023-07-24T17:55:30.511Z,5.30
2023-07-24T17:57:57.522Z,6.28
2023-07-24T18:00:24.548Z,5.20
2023-07-24T18:02:51.710Z,4.97
2023-07-24T18:05:18.877Z,6.40
2023-07-24T18:07:45.868Z,8.32
2023-07-24T18:10:13.001Z,6.18
2023-07-24T18:12:40.573Z,5.00
2023-07-24T18:15:08.135Z,7.20
2023-07-24T18:17:35.322Z,6.38
2023-07-24T18:20:02.314Z,6.53
2023-07-24T18:22:29.905Z,9.02
2023-07-24T18:24:56.920Z,5.63
2023-07-24T18:27:23.899Z,5.63
2023-07-24T18:29:50.930Z,6.13
2023-07-24T18:32:17.885Z,6.88
2023-07-24T18:34:44.968Z,6.85
2023-07-24T18:37:12.056Z,7.68
2023-07-24T18:39:39.027Z,8.98
2023-07-24T18:42:06.371Z,13.68
2023-07-24T18:44:35.304Z,8.90
2023-07-24T18:47:02.338Z,7.38
2023-07-24T18:49:29.895Z,9.30
2023-07-24T18:51:56.946Z,7.97
2023-07-24T18:54:23.925Z,8.30
2023-07-24T18:56:51.123Z,10.73
2023-07-24T18:59:18.357Z,6.97
2023-07-24T19:01:45.403Z,7.35
2023-07-24T19:04:12.419Z,11.00
2023-07-24T19:06:39.775Z,10.52
2023-07-24T19:09:06.818Z,7.63
2023-07-24T19:11:34.142Z,8.95
2023-07-24T19:14:01.206Z,8.48
2023-07-24T19:16:28.245Z,11.50
2023-07-24T19:18:55.431Z,14.20
2023-07-24T19:21:22.441Z,10.60
2023-07-24T19:23:49.493Z,9.35
2023-07-24T19:26:16.511Z,9.85
2023-07-24T19:28:43.981Z,12.70
2023-07-24T19:31:11.213Z,12.57
2023-07-24T19:33:38.225Z,8.63
2023-07-24T19:36:05.493Z,13.23
2023-07-24T19:38:32.497Z,10.63
2023-07-24T19:41:01.107Z,14.45
2023-07-24T19:43:28.852Z,8.55
2023-07-24T19:45:56.082Z,11.75
2023-07-24T19:48:26.002Z,8.73
2023-07-24T19:50:57.747Z,14.27
2023-07-24T19:53:25.635Z,10.18
2023-07-24T19:55:56.183Z,11.52
2023-07-24T19:58:33.253Z,11.35
2023-07-24T20:01:01.480Z,10.00
2023-07-24T20:03:29.095Z,11.35
2023-07-24T20:05:58.909Z,10.55
2023-07-24T20:08:27.748Z,11.02
2023-07-24T20:10:57.955Z,9.90
2023-07-24T20:13:25.424Z,9.13
2023-07-24T20:15:52.646Z,15.40
2023-07-24T20:18:19.833Z,8.23
2023-07-24T20:20:48.406Z,10.63
2023-07-24T20:23:16.738Z,12.48
2023-07-24T20:25:46.141Z,9.82
2023-07-24T20:28:13.736Z,10.18
2023-07-24T20:30:40.978Z,9.30
2023-07-24T20:33:07.964Z,9.88
2023-07-24T20:35:35.137Z,9.80
2023-07-24T20:38:05.548Z,15.63
2023-07-24T20:40:35.736Z,12.00
2023-07-24T20:43:05.679Z,11.18
2023-07-24T20:45:32.832Z,10.27
2023-07-24T20:47:59.963Z,11.00
2023-07-24T20:50:27.038Z,10.45
2023-07-24T20:52:54.074Z,12.00
2023-07-24T20:55:21.125Z,13.07
2023-07-24T20:57:48.126Z,13.85
2023-07-24T21:00:15.566Z,12.80
2023-07-24T21:02:42.610Z,13.40
2023-07-24T21:05:10.123Z,10.70
2023-07-24T21:07:37.137Z,10.60
2023-07-24T21:10:04.513Z,11.05
2023-07-24T21:12:31.586Z,11.95
2023-07-24T21:14:58.535Z,14.40
2023-07-24T21:17:25.555Z,14.20
2023-07-24T21:19:52.652Z,11.82
2023-07-24T21:22:19.688Z,13.20
2023-07-24T21:24:46.671Z,11.57
2023-07-24T21:27:13.720Z,12.13
2023-07-24T21:29:40.748Z,13.13
2023-07-24T21:32:08.106Z,11.75
2023-07-24T21:34:35.170Z,10.60
2023-07-24T21:37:02.186Z,12.60
2023-07-24T21:39:29.452Z,13.85
2023-07-24T21:41:56.458Z,12.50
2023-07-24T21:44:23.397Z,15.57
2023-07-24T21:46:50.382Z,12.45
2023-07-24T21:49:17.410Z,12.25
2023-07-24T21:51:44.443Z,12.23
2023-07-24T21:54:11.451Z,11.75
2023-07-24T21:56:38.597Z,14.93
2023-07-24T21:59:05.643Z,11.43
2023-07-24T22:01:33.139Z,12.40
2023-07-24T22:04:00.446Z,10.77
2023-07-24T22:06:27.462Z,10.30
2023-07-24T22:08:54.515Z,12.70
2023-07-24T22:11:22.700Z,12.07
2023-07-24T22:13:49.734Z,11.18
2023-07-24T22:16:16.960Z,11.15
2023-07-24T22:18:44.051Z,10.65
2023-07-24T22:21:11.036Z,10.48
2023-07-24T22:23:38.094Z,11.18
2023-07-24T22:26:05.102Z,11.05
2023-07-24T22:28:32.156Z,11.93
2023-07-24T22:30:59.172Z,12.18
2023-07-24T22:33:26.231Z,11.02
2023-07-24T22:36:02.451Z,13.05
2023-07-24T22:38:29.469Z,9.75
2023-07-24T22:40:56.411Z,12.82
2023-07-24T22:43:23.463Z,12.82
2023-07-24T22:45:50.592Z,11.82
2023-07-24T22:48:17.633Z,10.82
2023-07-24T22:50:44.666Z,11.25
2023-07-24T22:53:11.642Z,12.07
2023-07-24T22:55:38.636Z,10.70
2023-07-24T22:58:05.706Z,11.35
2023-07-24T23:00:32.688Z,11.95
2023-07-24T23:02:59.783Z,11.57
2023-07-24T23:05:26.868Z,11.75
2023-07-24T23:07:56.403Z,10.20
2023-07-24T23:10:23.768Z,10.45
2023-07-24T23:12:50.763Z,15.05
2023-07-24T23:15:17.826Z,9.00
2023-07-24T23:17:44.824Z,10.88
2023-07-24T23:20:11.885Z,13.60
2023-07-24T23:22:39.835Z,11.10
2023-07-24T23:25:07.329Z,11.60
2023-07-24T23:27:34.287Z,10.93
2023-07-24T23:30:01.373Z,10.02
2023-07-24T23:32:28.433Z,12.75
2023-07-24T23:34:55.591Z,11.27
2023-07-24T23:37:22.965Z,11.30
2023-07-24T23:39:49.943Z,10.82
2023-07-24T23:42:16.944Z,10.13
2023-07-24T23:44:43.991Z,12.00
2023-07-24T23:47:11.720Z,10.95
2023-07-24T23:49:38.764Z,10.00
2023-07-24T23:52:06.165Z,10.90
2023-07-24T23:54:33.207Z,12.25
2023-07-24T23:57:00.230Z,10.90
2023-07-24T23:59:27.245Z,11.43
